createdAt,value
2023-04-07T00:02:18.237Z,5.68
2023-04-07T00:04:48.154Z,5.97
2023-04-07T00:07:17.078Z,6.13
2023-04-07T00:09:50.812Z,6.32
2023-04-07T00:12:22.580Z,6.03
2023-04-07T00:14:54.676Z,6.47
2023-04-07T00:17:28.558Z,6.25
2023-04-07T00:19:57.604Z,6.68
2023-04-07T00:22:25.959Z,5.97
2023-04-07T00:25:00.924Z,6.38
2023-04-07T00:27:39.655Z,6.28
2023-04-07T00:30:50.382Z,6.50
2023-04-07T00:33:51.735Z,6.63
2023-04-07T00:36:22.902Z,7.13
2023-04-07T00:38:51.341Z,7.22
2023-04-07T00:41:19.299Z,8.88
2023-04-07T00:43:56.004Z,8.10
2023-04-07T00:46:24.982Z,9.38
2023-04-07T00:48:55.931Z,8.77
2023-04-07T00:51:27.269Z,9.45
2023-04-07T00:53:57.153Z,9.98
2023-04-07T00:56:27.880Z,9.98
2023-04-07T00:58:56.471Z,8.27
2023-04-07T01:01:31.598Z,9.13
2023-04-07T01:04:27.554Z,8.75
2023-04-07T01:06:59.423Z,8.35
2023-04-07T01:09:54.703Z,8.82
2023-04-07T01:12:42.082Z,8.95
2023-04-07T01:15:12.767Z,8.48
2023-04-07T01:17:48.624Z,7.68
2023-04-07T01:20:18.835Z,8.05
2023-04-07T01:22:58.618Z,8.20
2023-04-07T01:25:33.255Z,7.20
2023-04-07T01:28:02.748Z,7.45
2023-04-07T01:30:36.459Z,7.43
2023-04-07T01:33:06.675Z,7.03
2023-04-07T01:35:36.709Z,8.00
2023-04-07T01:38:09.020Z,7.25
2023-04-07T01:40:37.160Z,8.32
2023-04-07T01:43:05.594Z,7.20
2023-04-07T01:45:36.531Z,6.80
2023-04-07T01:48:16.248Z,6.55
2023-04-07T01:51:19.284Z,6.32
2023-04-07T01:53:49.201Z,6.80
2023-04-07T01:56:18.963Z,7.45
2023-04-07T01:58:51.848Z,6.85
2023-04-07T02:01:22.489Z,6.57
2023-04-07T02:04:11.913Z,6.60
2023-04-07T02:07:22.615Z,7.03
2023-04-07T02:09:52.999Z,7.47
2023-04-07T02:12:21.814Z,7.32
2023-04-07T02:15:06.412Z,7.53
2023-04-07T02:17:40.945Z,6.57
2023-04-07T02:20:10.810Z,7.65
2023-04-07T02:22:39.994Z,7.07
2023-04-07T02:25:25.205Z,9.02
2023-04-07T02:28:02.297Z,7.13
2023-04-07T02:30:34.147Z,7.07
2023-04-07T02:33:06.488Z,7.13
2023-04-07T02:35:37.783Z,7.75
2023-04-07T02:38:38.071Z,7.25
2023-04-07T02:41:12.763Z,7.05
2023-04-07T02:43:41.046Z,7.10
2023-04-07T02:46:09.275Z,7.78
2023-04-07T02:48:38.969Z,7.70
2023-04-07T02:51:08.715Z,6.78
2023-04-07T02:53:36.774Z,7.45
2023-04-07T02:56:06.737Z,7.28
2023-04-07T02:58:36.011Z,7.85
2023-04-07T03:01:05.571Z,6.85
2023-04-07T03:03:36.420Z,7.35
2023-04-07T03:06:16.042Z,6.90
2023-04-07T03:08:59.662Z,6.95
2023-04-07T03:11:28.300Z,7.63
2023-04-07T03:13:58.317Z,7.60
2023-04-07T03:16:35.312Z,7.28
2023-04-07T03:19:14.039Z,6.85
2023-04-07T03:21:45.582Z,7.05
2023-04-07T03:24:48.571Z,7.65
2023-04-07T03:27:18.029Z,7.80
2023-04-07T03:29:53.215Z,7.88
2023-04-07T03:32:21.881Z,7.50
2023-04-07T03:34:51.784Z,7.97
2023-04-07T03:37:19.767Z,7.60
2023-04-07T03:39:49.912Z,7.53
2023-04-07T03:42:27.920Z,7.13
2023-04-07T03:45:04.245Z,7.70
2023-04-07T03:47:37.957Z,7.20
2023-04-07T03:50:10.217Z,8.57
2023-04-07T03:52:53.296Z,8.20
2023-04-07T04:00:39.810Z,9.02
2023-04-07T04:03:12.555Z,7.82
2023-04-07T04:05:57.029Z,6.88
2023-04-07T04:08:31.206Z,8.23
2023-04-07T04:10:59.571Z,7.70
2023-04-07T04:13:36.332Z,7.63
2023-04-07T04:16:06.797Z,7.53
2023-04-07T04:18:39.975Z,7.57
2023-04-07T04:21:16.461Z,7.43
2023-04-07T04:23:49.379Z,7.05
2023-04-07T04:26:51.593Z,6.53
2023-04-07T04:29:20.762Z,6.97
2023-04-07T04:31:49.293Z,7.25
2023-04-07T04:34:19.313Z,7.00
2023-04-07T04:36:49.381Z,6.53
2023-04-07T04:39:19.650Z,6.78
2023-04-07T04:42:19.708Z,6.28
2023-04-07T04:44:54.976Z,5.88
2023-04-07T04:47:31.928Z,5.88
2023-04-07T04:50:04.090Z,5.97
2023-04-07T04:52:35.894Z,5.78
2023-04-07T04:55:06.700Z,6.13
2023-04-07T05:02:16.552Z,5.13
2023-04-07T05:04:45.996Z,5.97
2023-04-07T05:07:32.903Z,6.07
2023-04-07T05:10:12.221Z,5.65
2023-04-07T05:12:48.405Z,6.30
2023-04-07T05:15:23.124Z,5.13
2023-04-07T05:17:54.553Z,5.53
2023-04-07T05:20:27.461Z,7.65
2023-04-07T05:23:00.387Z,4.70
2023-04-07T05:25:39.008Z,5.28
2023-04-07T05:28:09.004Z,5.35
2023-04-07T05:30:41.832Z,9.38
2023-04-07T05:33:11.546Z,4.88
2023-04-07T05:35:53.278Z,4.95
2023-04-07T05:38:24.415Z,5.35
2023-04-07T05:40:56.980Z,5.00
2023-04-07T05:43:33.685Z,5.68
2023-04-07T05:46:03.146Z,5.88
2023-04-07T05:48:33.050Z,5.38
2023-04-07T05:51:01.248Z,6.10
2023-04-07T05:53:31.333Z,5.90
2023-04-07T05:55:59.503Z,5.63
2023-04-07T05:58:48.517Z,5.28
2023-04-07T06:01:25.806Z,5.53
2023-04-07T06:03:56.065Z,5.35
2023-04-07T06:06:26.983Z,5.18
2023-04-07T06:09:01.153Z,5.53
2023-04-07T06:11:30.420Z,5.28
2023-04-07T06:13:58.340Z,5.40
2023-04-07T06:16:27.067Z,5.35
2023-04-07T06:18:56.551Z,5.32
2023-04-07T06:21:28.636Z,4.47
2023-04-07T06:24:00.132Z,4.65
2023-04-07T06:26:33.127Z,4.65
2023-04-07T06:29:02.012Z,4.82
2023-04-07T06:31:30.957Z,5.10
2023-04-07T06:34:00.010Z,4.63
2023-04-07T06:36:29.243Z,4.75
2023-04-07T06:38:58.360Z,5.10
2023-04-07T06:41:26.508Z,4.38
2023-04-07T06:43:55.574Z,4.65
2023-04-07T06:46:27.844Z,5.20
2023-04-07T06:48:57.032Z,4.75
2023-04-07T06:51:25.021Z,5.03
2023-04-07T06:53:55.418Z,27.27
2023-04-07T06:56:24.155Z,15.82
2023-04-07T06:58:53.384Z,7.60
2023-04-07T07:01:32.101Z,13.82
2023-04-07T07:04:03.390Z,10.63
2023-04-07T07:06:33.744Z,7.95
2023-04-07T07:12:04.282Z,6.63
2023-04-07T07:16:01.605Z,6.78
2023-04-07T07:22:09.805Z,5.65
2023-04-07T07:24:40.172Z,11.50
2023-04-07T07:27:11.979Z,7.00
2023-04-07T07:29:42.188Z,9.23
2023-04-07T07:32:10.960Z,7.25
2023-04-07T07:34:39.330Z,8.90
2023-04-07T07:37:10.401Z,11.07
2023-04-07T07:39:39.510Z,7.05
2023-04-07T07:42:11.463Z,5.63
2023-04-07T07:44:41.596Z,5.20
2023-04-07T07:47:09.757Z,5.60
2023-04-07T07:49:40.358Z,6.32
2023-04-07T07:52:10.311Z,7.85
2023-04-07T07:54:43.119Z,6.05
2023-04-07T07:57:12.465Z,6.05
2023-04-07T07:59:43.325Z,6.80
2023-04-07T08:02:11.620Z,6.28
2023-04-07T08:04:40.136Z,6.47
2023-04-07T08:07:12.231Z,6.95
2023-04-07T08:09:40.409Z,6.43
2023-04-07T08:12:09.129Z,7.03
2023-04-07T08:14:40.130Z,7.50
2023-04-07T08:17:10.963Z,6.63
2023-04-07T08:19:42.030Z,8.23
2023-04-07T08:22:10.101Z,8.85
2023-04-07T08:24:38.162Z,8.43
2023-04-07T08:27:09.498Z,8.43
2023-04-07T08:29:39.095Z,7.72
2023-04-07T08:32:15.076Z,8.70
2023-04-07T08:34:43.207Z,8.52
2023-04-07T08:37:13.262Z,8.15
2023-04-07T08:39:41.324Z,7.95
2023-04-07T08:42:09.368Z,9.15
2023-04-07T08:44:42.386Z,8.30
2023-04-07T08:47:12.025Z,8.80
2023-04-07T08:49:41.714Z,8.32
2023-04-07T08:52:12.929Z,10.98
2023-04-07T08:54:42.315Z,9.73
2023-04-07T08:57:12.412Z,9.05
2023-04-07T08:59:44.747Z,8.20
2023-04-07T09:02:13.452Z,9.10
2023-04-07T09:04:43.406Z,8.32
2023-04-07T09:07:11.761Z,9.45
2023-04-07T09:09:42.801Z,8.88
2023-04-07T09:12:11.613Z,8.57
2023-04-07T09:14:43.082Z,9.07
2023-04-07T09:17:20.241Z,10.18
2023-04-07T09:19:59.642Z,9.02
2023-04-07T09:22:40.330Z,9.82
2023-04-07T09:25:30.418Z,10.15
2023-04-07T09:28:03.111Z,10.23
2023-04-07T09:30:34.045Z,10.73
2023-04-07T09:33:03.077Z,10.52
2023-04-07T09:35:31.970Z,9.15
2023-04-07T09:38:08.711Z,10.85
2023-04-07T09:40:43.236Z,11.32
2023-04-07T09:43:41.711Z,10.23
2023-04-07T09:46:20.683Z,10.48
2023-04-07T09:48:50.035Z,12.60
2023-04-07T09:51:19.638Z,11.20
2023-04-07T09:53:52.862Z,11.82
2023-04-07T09:56:24.814Z,11.95
2023-04-07T09:58:53.396Z,11.43
2023-04-07T10:01:23.586Z,10.93
2023-04-07T10:03:53.104Z,11.65
2023-04-07T10:06:22.202Z,11.15
2023-04-07T10:08:52.582Z,11.40
2023-04-07T10:11:22.777Z,9.98
2023-04-07T10:13:51.756Z,10.05
2023-04-07T10:16:21.592Z,11.43
2023-04-07T10:18:51.448Z,9.60
2023-04-07T10:21:22.589Z,10.05
2023-04-07T10:24:05.696Z,9.95
2023-04-07T10:26:40.592Z,9.02
2023-04-07T10:29:15.951Z,9.38
2023-04-07T10:31:44.590Z,9.90
2023-04-07T10:34:17.027Z,8.13
2023-04-07T10:37:11.400Z,9.82
2023-04-07T10:39:42.938Z,8.93
2023-04-07T10:42:41.599Z,9.63
2023-04-07T10:45:11.121Z,9.68
2023-04-07T10:47:58.802Z,9.23
2023-04-07T10:50:37.947Z,9.15
2023-04-07T10:53:40.860Z,9.80
2023-04-07T10:56:15.225Z,9.13
2023-04-07T11:02:23.744Z,10.05
2023-04-07T11:04:52.633Z,9.93
2023-04-07T11:07:22.514Z,10.45
2023-04-07T11:09:56.738Z,10.25
2023-04-07T11:12:26.746Z,11.10
2023-04-07T11:14:56.782Z,10.35
2023-04-07T11:17:27.810Z,10.60
2023-04-07T11:19:58.872Z,10.45
2023-04-07T11:22:30.361Z,11.55
2023-04-07T11:25:01.487Z,10.57
2023-04-07T11:27:33.464Z,10.32
2023-04-07T11:30:01.826Z,10.80
2023-04-07T11:32:33.320Z,10.75
2023-04-07T11:35:02.352Z,11.13
2023-04-07T11:37:37.836Z,11.13
2023-04-07T11:40:06.877Z,10.52
2023-04-07T11:42:40.313Z,10.52
2023-04-07T11:45:19.012Z,11.27
2023-04-07T11:47:51.555Z,11.73
2023-04-07T11:50:43.267Z,10.95
2023-04-07T11:53:11.569Z,11.27
2023-04-07T11:55:40.657Z,11.05
2023-04-07T11:58:12.523Z,11.13
2023-04-07T12:00:55.379Z,11.13
2023-04-07T12:03:27.746Z,10.27
2023-04-07T12:06:01.777Z,9.80
2023-04-07T12:08:44.740Z,11.20
2023-04-07T12:11:14.107Z,10.13
2023-04-07T12:13:46.817Z,11.25
2023-04-07T12:16:15.707Z,10.73
2023-04-07T12:18:44.173Z,10.88
2023-04-07T12:21:19.246Z,9.77
2023-04-07T12:23:48.838Z,10.63
2023-04-07T12:26:21.175Z,10.45
2023-04-07T12:28:55.324Z,10.27
2023-04-07T12:31:24.269Z,10.65
2023-04-07T12:33:59.335Z,9.85
2023-04-07T12:36:28.289Z,10.00
2023-04-07T12:38:59.647Z,10.30
2023-04-07T12:41:28.121Z,10.30
2023-04-07T12:43:57.233Z,10.00
2023-04-07T12:46:27.081Z,9.80
2023-04-07T12:48:55.181Z,11.13
2023-04-07T12:51:26.428Z,10.80
2023-04-07T12:53:56.592Z,9.95
2023-04-07T12:56:25.406Z,9.25
2023-04-07T12:58:54.630Z,10.25
2023-04-07T13:01:22.776Z,9.38
2023-04-07T13:03:54.176Z,9.75
2023-04-07T13:06:26.245Z,8.55
2023-04-07T13:08:56.609Z,8.98
2023-04-07T13:11:25.880Z,9.70
2023-04-07T13:13:56.518Z,10.50
2023-04-07T13:16:26.104Z,9.02
2023-04-07T13:18:55.498Z,9.85
2023-04-07T13:21:45.372Z,9.45
2023-04-07T13:24:16.064Z,9.85
2023-04-07T13:26:44.865Z,9.43
2023-04-07T13:29:14.487Z,9.90
2023-04-07T13:31:49.234Z,9.85
2023-04-07T13:34:17.494Z,8.88
2023-04-07T13:36:47.255Z,9.43
2023-04-07T13:39:15.582Z,8.50
2023-04-07T13:41:45.522Z,9.00
2023-04-07T13:44:15.112Z,9.30
2023-04-07T13:46:46.833Z,8.52
2023-04-07T13:49:15.820Z,9.35
2023-04-07T13:51:47.063Z,8.55
2023-04-07T13:54:17.387Z,9.02
2023-04-07T13:56:46.286Z,9.00
2023-04-07T13:59:14.290Z,7.82
2023-04-07T14:01:43.686Z,8.45
2023-04-07T14:04:13.518Z,8.50
2023-04-07T14:06:44.402Z,8.52
2023-04-07T14:09:15.193Z,9.20
2023-04-07T14:11:44.936Z,8.65
2023-04-07T14:14:17.822Z,8.35
2023-04-07T14:16:46.589Z,7.70
2023-04-07T14:19:18.292Z,8.90
2023-04-07T14:21:47.321Z,8.13
2023-04-07T14:24:15.721Z,8.43
2023-04-07T14:26:44.540Z,8.77
2023-04-07T14:29:17.311Z,8.65
2023-04-07T14:31:48.741Z,7.93
2023-04-07T14:34:17.453Z,8.20
2023-04-07T14:36:57.260Z,8.02
2023-04-07T14:39:27.577Z,9.73
2023-04-07T14:41:56.762Z,8.15
2023-04-07T14:44:24.986Z,8.13
2023-04-07T14:46:54.092Z,7.53
2023-04-07T14:49:24.548Z,7.47
2023-04-07T14:51:54.868Z,7.47
2023-04-07T14:54:23.524Z,7.38
2023-04-07T14:56:51.677Z,7.65
2023-04-07T14:59:20.043Z,7.18
2023-04-07T15:01:51.436Z,7.10
2023-04-07T15:04:20.725Z,7.03
2023-04-07T15:06:50.634Z,6.93
2023-04-07T15:09:19.442Z,7.32
2023-04-07T15:11:48.063Z,7.43
2023-04-07T15:14:16.765Z,7.72
2023-04-07T15:16:50.806Z,8.27
2023-04-07T15:19:20.364Z,9.02
2023-04-07T15:21:48.448Z,8.65
2023-04-07T15:24:18.456Z,8.43
2023-04-07T15:26:46.657Z,9.18
2023-04-07T15:29:14.845Z,9.45
2023-04-07T15:31:48.256Z,8.90
2023-04-07T15:34:16.838Z,9.63
2023-04-07T15:36:44.865Z,9.20
2023-04-07T15:39:19.694Z,9.35
2023-04-07T15:41:47.714Z,9.63
2023-04-07T15:44:23.662Z,9.45
2023-04-07T15:46:51.580Z,9.75
2023-04-07T15:49:25.695Z,8.77
2023-04-07T15:51:54.220Z,9.27
2023-04-07T15:54:24.066Z,9.15
2023-04-07T15:56:52.846Z,9.77
2023-04-07T15:59:22.626Z,9.48
2023-04-07T16:01:53.436Z,10.35
2023-04-07T16:04:25.378Z,10.07
2023-04-07T16:06:54.305Z,10.07
2023-04-07T16:09:42.671Z,9.60
2023-04-07T16:12:14.012Z,9.63
2023-04-07T16:14:42.477Z,9.70
2023-04-07T16:17:12.682Z,9.38
2023-04-07T16:19:43.264Z,8.05
2023-04-07T16:22:13.074Z,8.05
2023-04-07T16:24:49.765Z,9.15
2023-04-07T16:27:19.598Z,8.63
2023-04-07T16:29:50.937Z,7.38
2023-04-07T16:32:19.071Z,8.75
2023-04-07T16:34:47.393Z,7.57
2023-04-07T16:37:21.390Z,8.93
2023-04-07T16:39:50.571Z,9.13
2023-04-07T16:42:19.133Z,7.90
2023-04-07T16:44:49.697Z,8.13
2023-04-07T16:47:17.896Z,7.28
2023-04-07T16:49:48.135Z,8.25
2023-04-07T16:52:36.284Z,9.15
2023-04-07T16:55:06.859Z,10.52
2023-04-07T16:57:40.342Z,8.02
2023-04-07T17:00:08.900Z,7.65
2023-04-07T17:02:38.547Z,9.02
2023-04-07T17:05:08.659Z,9.13
2023-04-07T17:07:36.743Z,9.13
2023-04-07T17:10:05.158Z,8.10
2023-04-07T17:12:33.612Z,10.30
2023-04-07T17:15:01.648Z,8.88
2023-04-07T17:17:33.243Z,7.50
2023-04-07T17:20:01.825Z,8.18
2023-04-07T17:22:30.299Z,8.55
2023-04-07T17:24:58.928Z,9.35
2023-04-07T17:27:30.613Z,9.38
2023-04-07T17:30:21.629Z,9.32
2023-04-07T17:32:53.888Z,9.57
2023-04-07T17:35:22.216Z,9.70
2023-04-07T17:38:11.672Z,10.55
2023-04-07T17:40:40.832Z,10.38
2023-04-07T17:43:16.465Z,10.18
2023-04-07T17:45:46.357Z,11.82
2023-04-07T17:48:14.425Z,12.82
2023-04-07T17:50:43.485Z,12.25
2023-04-07T17:53:12.510Z,14.32
2023-04-07T17:55:43.840Z,14.55
2023-04-07T17:58:15.889Z,16.42
2023-04-07T18:00:53.080Z,18.95
2023-04-07T18:03:22.927Z,23.00
2023-04-07T18:05:55.102Z,22.80
2023-04-07T18:08:23.474Z,22.05
2023-04-07T18:10:52.946Z,19.63
2023-04-07T18:13:26.226Z,19.85
2023-04-07T18:15:56.814Z,21.98
2023-04-07T18:18:45.619Z,20.48
2023-04-07T18:21:15.290Z,18.83
2023-04-07T18:23:46.737Z,16.98
2023-04-07T18:26:16.270Z,16.52
2023-04-07T18:28:44.404Z,16.85
2023-04-07T18:31:17.684Z,17.95
2023-04-07T18:33:57.129Z,20.88
2023-04-07T18:36:43.417Z,21.88
2023-04-07T18:39:11.892Z,23.08
2023-04-07T18:41:45.486Z,22.58
2023-04-07T18:44:14.165Z,23.73
2023-04-07T18:46:42.265Z,23.42
2023-04-07T18:49:11.107Z,22.02
2023-04-07T18:51:41.918Z,21.98
2023-04-07T18:54:13.156Z,20.27
2023-04-07T18:56:44.594Z,20.92
2023-04-07T18:59:15.834Z,20.15
2023-04-07T19:02:08.410Z,18.38
2023-04-07T19:04:38.325Z,17.17
2023-04-07T19:07:06.362Z,17.02
2023-04-07T19:09:38.096Z,16.15
2023-04-07T19:12:06.190Z,17.13
2023-04-07T19:14:34.640Z,13.88
2023-04-07T19:17:05.851Z,12.82
2023-04-07T19:19:39.581Z,13.52
2023-04-07T19:22:13.294Z,13.95
2023-04-07T19:25:45.990Z,14.73
2023-04-07T19:28:14.259Z,18.05
2023-04-07T19:31:21.184Z,25.25
2023-04-07T19:33:54.010Z,25.07
2023-04-07T19:36:26.713Z,28.70
2023-04-07T19:40:03.174Z,28.10
2023-04-07T19:42:51.289Z,28.65
2023-04-07T19:50:41.378Z,26.48
2023-04-07T19:53:24.430Z,27.77
2023-04-07T19:56:01.767Z,26.52
2023-04-07T19:58:30.816Z,26.75
2023-04-07T20:01:03.824Z,26.08
2023-04-07T20:03:36.560Z,29.48
2023-04-07T20:06:09.346Z,27.05
2023-04-07T20:08:39.374Z,29.02
2023-04-07T20:11:11.538Z,30.55
2023-04-07T20:13:44.157Z,29.20
2023-04-07T20:16:14.527Z,33.28
2023-04-07T20:18:50.831Z,29.80
2023-04-07T20:21:20.759Z,30.77
2023-04-07T20:23:49.033Z,31.00
2023-04-07T20:26:19.554Z,32.30
2023-04-07T20:28:49.494Z,33.28
2023-04-07T20:31:25.401Z,23.45
2023-04-07T20:33:53.837Z,22.33
2023-04-07T20:36:22.076Z,23.85
2023-04-07T20:38:50.360Z,22.25
2023-04-07T20:41:18.979Z,22.52
2023-04-07T20:43:48.125Z,21.90
2023-04-07T20:46:17.649Z,21.35
2023-04-07T20:48:46.375Z,19.88
2023-04-07T20:51:14.988Z,20.52
2023-04-07T20:53:43.630Z,19.42
2023-04-07T20:56:11.721Z,20.15
2023-04-07T20:58:40.012Z,19.67
2023-04-07T21:01:08.887Z,19.50
2023-04-07T21:03:38.023Z,17.65
2023-04-07T21:06:09.608Z,19.23
2023-04-07T21:08:39.644Z,20.48
2023-04-07T21:11:09.115Z,20.67
2023-04-07T21:13:38.508Z,20.27
2023-04-07T21:16:07.028Z,20.38
2023-04-07T21:18:35.909Z,22.98
2023-04-07T21:21:04.724Z,21.73
2023-04-07T21:23:33.173Z,23.15
2023-04-07T21:26:02.386Z,21.92
2023-04-07T21:28:35.598Z,21.42
2023-04-07T21:31:04.872Z,22.08
2023-04-07T21:33:40.731Z,24.15
2023-04-07T21:36:11.319Z,23.42
2023-04-07T21:38:42.017Z,22.83
2023-04-07T21:41:10.448Z,21.33
2023-04-07T21:43:45.704Z,20.90
2023-04-07T21:46:18.614Z,20.50
2023-04-07T21:48:48.457Z,21.40
2023-04-07T21:51:17.596Z,20.77
2023-04-07T21:53:46.013Z,21.02
2023-04-07T21:56:17.220Z,22.85
2023-04-07T21:58:47.530Z,30.42
2023-04-07T22:01:17.310Z,33.08
2023-04-07T22:03:46.750Z,29.13
2023-04-07T22:06:15.707Z,30.48
2023-04-07T22:08:48.946Z,29.92
2023-04-07T22:11:30.051Z,27.67
2023-04-07T22:13:59.121Z,28.55
2023-04-07T22:16:27.265Z,27.42
2023-04-07T22:19:01.744Z,29.55
2023-04-07T22:21:31.166Z,28.42
2023-04-07T22:23:59.282Z,31.65
2023-04-07T22:26:28.437Z,32.88
2023-04-07T22:28:57.995Z,33.47
2023-04-07T22:31:26.253Z,33.17
2023-04-07T22:33:56.725Z,30.05
2023-04-07T22:36:25.107Z,30.17
2023-04-07T22:38:52.922Z,31.92
2023-04-07T22:41:21.613Z,29.52
2023-04-07T22:43:50.936Z,29.40
2023-04-07T22:46:19.212Z,28.95
2023-04-07T22:48:53.198Z,31.08
2023-04-07T22:51:21.291Z,29.17
2023-04-07T22:53:50.518Z,28.20
2023-04-07T22:56:19.766Z,28.50
2023-04-07T22:58:48.673Z,27.20
2023-04-07T23:01:18.403Z,28.38
2023-04-07T23:03:47.989Z,27.67
2023-04-07T23:06:16.171Z,27.20
2023-04-07T23:08:44.349Z,27.95
2023-04-07T23:11:13.106Z,27.73
2023-04-07T23:13:43.264Z,28.50
2023-04-07T23:16:14.706Z,28.33
2023-04-07T23:18:43.567Z,27.67
2023-04-07T23:21:12.464Z,28.63
2023-04-07T23:23:40.295Z,27.40
2023-04-07T23:26:08.686Z,26.83
2023-04-07T23:28:36.806Z,25.88
2023-04-07T23:31:06.749Z,25.50
2023-04-07T23:33:34.993Z,22.83
2023-04-07T23:36:03.856Z,25.13
2023-04-07T23:38:32.044Z,27.67
2023-04-07T23:41:00.009Z,28.52
2023-04-07T23:43:29.155Z,27.95
2023-04-07T23:45:57.419Z,29.05
2023-04-07T23:48:27.413Z,26.60
2023-04-07T23:50:56.141Z,28.90
2023-04-07T23:53:24.738Z,28.10
2023-04-07T23:55:52.975Z,28.05
2023-04-07T23:58:21.360Z,27.67
